sensor_id;sensor_type;location;lat;lon;timestamp;temperature;humidity
46400;DHT22;32104;50.838;4.388;2022-11-30T00:44:08;5.90;99.90
46400;DHT22;32104;50.838;4.388;2022-11-30T00:46:33;7.50;99.90
46400;DHT22;32104;50.838;4.388;2022-11-30T00:49:00;7.70;99.90
46400;DHT22;32104;50.838;4.388;2022-11-30T00:51:27;7.80;99.90
46400;DHT22;32104;50.838;4.388;2022-11-30T00:53:54;7.80;99.90
46400;DHT22;32104;50.838;4.388;2022-11-30T00:56:20;7.90;99.90
46400;DHT22;32104;50.838;4.388;2022-11-30T00:58:45;7.90;99.90
46400;DHT22;32104;50.838;4.388;2022-11-30T01:01:11;7.90;99.90
46400;DHT22;32104;50.838;4.388;2022-11-30T01:03:38;7.90;99.90
46400;DHT22;32104;50.838;4.388;2022-11-30T01:06:07;7.90;99.90
46400;DHT22;32104;50.838;4.388;2022-11-30T01:08:33;7.90;99.90
46400;DHT22;32104;50.838;4.388;2022-11-30T01:11:10;8.00;99.90
46400;DHT22;32104;50.838;4.388;2022-11-30T01:13:36;8.00;99.90
46400;DHT22;32104;50.838;4.388;2022-11-30T01:16:08;8.00;99.90
46400;DHT22;32104;50.838;4.388;2022-11-30T01:18:37;8.10;99.90
46400;DHT22;32104;50.838;4.388;2022-11-30T01:21:11;8.10;99.90
46400;DHT22;32104;50.838;4.388;2022-11-30T01:23:38;8.10;99.90
46400;DHT22;32104;50.838;4.388;2022-11-30T01:26:06;8.00;99.90
46400;DHT22;32104;50.838;4.388;2022-11-30T01:28:33;8.10;99.90
46400;DHT22;32104;50.838;4.388;2022-11-30T01:31:00;8.00;99.90
46400;DHT22;32104;50.838;4.388;2022-11-30T01:33:36;8.10;99.90
46400;DHT22;32104;50.838;4.388;2022-11-30T01:36:21;8.10;99.90
46400;DHT22;32104;50.838;4.388;2022-11-30T01:38:53;7.90;99.90
46400;DHT22;32104;50.838;4.388;2022-11-30T01:41:25;7.90;99.90
46400;DHT22;32104;50.838;4.388;2022-11-30T01:43:57;8.10;99.90
46400;DHT22;32104;50.838;4.388;2022-11-30T01:49:32;8.10;99.90
46400;DHT22;32104;50.838;4.388;2022-11-30T01:52:18;8.00;99.90
46400;DHT22;32104;50.838;4.388;2022-11-30T01:55:05;8.20;99.90
46400;DHT22;32104;50.838;4.388;2022-11-30T02:00:22;8.20;99.90
46400;DHT22;32104;50.838;4.388;2022-11-30T02:05:36;8.20;99.90
46400;DHT22;32104;50.838;4.388;2022-11-30T02:08:04;8.30;99.90
46400;DHT22;32104;50.838;4.388;2022-11-30T02:10:34;8.30;99.90
46400;DHT22;32104;50.838;4.388;2022-11-30T02:13:36;8.30;99.90
46400;DHT22;32104;50.838;4.388;2022-11-30T02:27:10;8.10;99.90
46400;DHT22;32104;50.838;4.388;2022-11-30T02:29:41;8.10;99.90
46400;DHT22;32104;50.838;4.388;2022-11-30T02:32:13;8.10;99.90
46400;DHT22;32104;50.838;4.388;2022-11-30T02:34:41;8.10;99.90
46400;DHT22;32104;50.838;4.388;2022-11-30T02:37:09;8.00;99.90
46400;DHT22;32104;50.838;4.388;2022-11-30T02:39:36;8.00;99.90
46400;DHT22;32104;50.838;4.388;2022-11-30T02:42:02;7.90;99.90
46400;DHT22;32104;50.838;4.388;2022-11-30T02:44:28;8.00;99.90
46400;DHT22;32104;50.838;4.388;2022-11-30T02:47:23;8.00;99.90
46400;DHT22;32104;50.838;4.388;2022-11-30T02:50:02;8.00;99.90
46400;DHT22;32104;50.838;4.388;2022-11-30T02:52:29;8.00;99.90
46400;DHT22;32104;50.838;4.388;2022-11-30T02:55:04;8.10;99.90
46400;DHT22;32104;50.838;4.388;2022-11-30T02:57:31;8.10;99.90
46400;DHT22;32104;50.838;4.388;2022-11-30T02:59:59;8.00;99.90
46400;DHT22;32104;50.838;4.388;2022-11-30T03:02:27;8.00;99.90
46400;DHT22;32104;50.838;4.388;2022-11-30T03:04:53;8.00;99.90
46400;DHT22;32104;50.838;4.388;2022-11-30T03:07:18;8.00;99.90
46400;DHT22;32104;50.838;4.388;2022-11-30T03:09:44;8.10;99.90
46400;DHT22;32104;50.838;4.388;2022-11-30T03:12:10;8.00;99.90
46400;DHT22;32104;50.838;4.388;2022-11-30T03:14:36;8.00;99.90
46400;DHT22;32104;50.838;4.388;2022-11-30T03:17:02;8.00;99.90
46400;DHT22;32104;50.838;4.388;2022-11-30T03:19:29;8.00;99.90
46400;DHT22;32104;50.838;4.388;2022-11-30T03:21:57;8.00;99.90
46400;DHT22;32104;50.838;4.388;2022-11-30T03:24:23;8.00;99.90
46400;DHT22;32104;50.838;4.388;2022-11-30T03:26:49;8.00;99.90
46400;DHT22;32104;50.838;4.388;2022-11-30T03:29:15;8.00;99.90
46400;DHT22;32104;50.838;4.388;2022-11-30T03:31:41;7.90;99.90
46400;DHT22;32104;50.838;4.388;2022-11-30T03:34:08;7.90;99.90
46400;DHT22;32104;50.838;4.388;2022-11-30T03:36:34;7.90;99.90
46400;DHT22;32104;50.838;4.388;2022-11-30T03:39:00;7.80;99.90
46400;DHT22;32104;50.838;4.388;2022-11-30T03:41:26;7.80;99.90
46400;DHT22;32104;50.838;4.388;2022-11-30T03:43:52;7.90;99.90
46400;DHT22;32104;50.838;4.388;2022-11-30T03:46:18;8.00;99.90
46400;DHT22;32104;50.838;4.388;2022-11-30T03:48:44;8.10;99.90
46400;DHT22;32104;50.838;4.388;2022-11-30T03:51:12;8.00;99.90
46400;DHT22;32104;50.838;4.388;2022-11-30T03:53:40;7.90;99.90
46400;DHT22;32104;50.838;4.388;2022-11-30T03:56:08;7.90;99.90
46400;DHT22;32104;50.838;4.388;2022-11-30T03:58:35;7.90;99.90
46400;DHT22;32104;50.838;4.388;2022-11-30T04:01:12;8.00;99.90
46400;DHT22;32104;50.838;4.388;2022-11-30T04:03:39;8.00;99.90
46400;DHT22;32104;50.838;4.388;2022-11-30T04:06:08;8.00;99.90
46400;DHT22;32104;50.838;4.388;2022-11-30T04:08:34;8.00;99.90
46400;DHT22;32104;50.838;4.388;2022-11-30T04:11:01;8.00;99.90
46400;DHT22;32104;50.838;4.388;2022-11-30T04:13:28;7.90;99.90
46400;DHT22;32104;50.838;4.388;2022-11-30T04:15:55;8.00;99.90
46400;DHT22;32104;50.838;4.388;2022-11-30T04:18:22;8.00;99.90
46400;DHT22;32104;50.838;4.388;2022-11-30T04:20:55;8.00;99.90
46400;DHT22;32104;50.838;4.388;2022-11-30T04:23:22;8.00;99.90
46400;DHT22;32104;50.838;4.388;2022-11-30T04:25:49;8.10;99.90
46400;DHT22;32104;50.838;4.388;2022-11-30T04:28:17;8.00;99.90
46400;DHT22;32104;50.838;4.388;2022-11-30T04:30:43;7.90;99.90
46400;DHT22;32104;50.838;4.388;2022-11-30T04:33:11;8.00;99.90
46400;DHT22;32104;50.838;4.388;2022-11-30T04:35:46;7.90;99.90
46400;DHT22;32104;50.838;4.388;2022-11-30T04:38:12;7.90;99.90
46400;DHT22;32104;50.838;4.388;2022-11-30T04:40:42;7.90;99.90
46400;DHT22;32104;50.838;4.388;2022-11-30T04:43:11;7.80;99.90
46400;DHT22;32104;50.838;4.388;2022-11-30T04:45:37;7.80;99.90
46400;DHT22;32104;50.838;4.388;2022-11-30T04:48:04;7.90;99.90
46400;DHT22;32104;50.838;4.388;2022-11-30T04:50:30;7.90;99.90
46400;DHT22;32104;50.838;4.388;2022-11-30T04:52:56;7.90;99.90
46400;DHT22;32104;50.838;4.388;2022-11-30T04:55:23;7.80;99.90
46400;DHT22;32104;50.838;4.388;2022-11-30T04:57:59;7.80;99.90
46400;DHT22;32104;50.838;4.388;2022-11-30T05:00:27;7.50;99.90
46400;DHT22;32104;50.838;4.388;2022-11-30T05:02:55;7.60;99.90
46400;DHT22;32104;50.838;4.388;2022-11-30T05:05:21;7.50;99.90
46400;DHT22;32104;50.838;4.388;2022-11-30T05:07:54;7.50;99.90
46400;DHT22;32104;50.838;4.388;2022-11-30T05:10:21;7.70;99.90
46400;DHT22;32104;50.838;4.388;2022-11-30T05:12:47;7.70;99.90
46400;DHT22;32104;50.838;4.388;2022-11-30T05:15:12;7.50;99.90
46400;DHT22;32104;50.838;4.388;2022-11-30T05:17:38;7.40;99.90
46400;DHT22;32104;50.838;4.388;2022-11-30T05:20:05;7.50;99.90
46400;DHT22;32104;50.838;4.388;2022-11-30T05:22:31;7.60;99.90
46400;DHT22;32104;50.838;4.388;2022-11-30T05:25:00;7.70;99.90
46400;DHT22;32104;50.838;4.388;2022-11-30T05:27:26;7.60;99.90
46400;DHT22;32104;50.838;4.388;2022-11-30T05:29:52;7.60;99.90
46400;DHT22;32104;50.838;4.388;2022-11-30T05:32:17;7.60;99.90
46400;DHT22;32104;50.838;4.388;2022-11-30T05:34:51;7.90;99.90
46400;DHT22;32104;50.838;4.388;2022-11-30T05:37:18;7.90;99.90
46400;DHT22;32104;50.838;4.388;2022-11-30T05:39:45;7.80;99.90
46400;DHT22;32104;50.838;4.388;2022-11-30T05:42:11;7.80;99.90
46400;DHT22;32104;50.838;4.388;2022-11-30T05:44:38;7.80;99.90
46400;DHT22;32104;50.838;4.388;2022-11-30T05:47:04;7.50;99.90
46400;DHT22;32104;50.838;4.388;2022-11-30T05:49:32;7.50;99.90
46400;DHT22;32104;50.838;4.388;2022-11-30T05:51:58;7.60;99.90
46400;DHT22;32104;50.838;4.388;2022-11-30T05:54:26;7.60;99.90
46400;DHT22;32104;50.838;4.388;2022-11-30T05:56:52;7.50;99.90
46400;DHT22;32104;50.838;4.388;2022-11-30T05:59:19;7.40;99.90
46400;DHT22;32104;50.838;4.388;2022-11-30T06:01:45;7.20;99.90
46400;DHT22;32104;50.838;4.388;2022-11-30T06:04:10;7.30;99.90
46400;DHT22;32104;50.838;4.388;2022-11-30T06:06:36;7.60;99.90
46400;DHT22;32104;50.838;4.388;2022-11-30T06:09:04;7.60;99.90
46400;DHT22;32104;50.838;4.388;2022-11-30T06:11:31;7.60;99.90
46400;DHT22;32104;50.838;4.388;2022-11-30T06:13:56;7.70;99.90
46400;DHT22;32104;50.838;4.388;2022-11-30T06:16:22;7.60;99.90
46400;DHT22;32104;50.838;4.388;2022-11-30T06:18:48;7.50;99.90
46400;DHT22;32104;50.838;4.388;2022-11-30T06:21:14;7.50;99.90
46400;DHT22;32104;50.838;4.388;2022-11-30T06:23:39;7.50;99.90
46400;DHT22;32104;50.838;4.388;2022-11-30T06:26:07;7.50;99.90
46400;DHT22;32104;50.838;4.388;2022-11-30T06:28:34;7.30;99.90
46400;DHT22;32104;50.838;4.388;2022-11-30T06:31:01;7.10;99.90
46400;DHT22;32104;50.838;4.388;2022-11-30T06:33:31;7.20;99.90
46400;DHT22;32104;50.838;4.388;2022-11-30T06:35:57;7.40;99.90
46400;DHT22;32104;50.838;4.388;2022-11-30T06:38:23;7.40;99.90
46400;DHT22;32104;50.838;4.388;2022-11-30T06:40:51;7.40;99.90
46400;DHT22;32104;50.838;4.388;2022-11-30T06:43:17;7.40;99.90
46400;DHT22;32104;50.838;4.388;2022-11-30T06:45:45;7.40;99.90
46400;DHT22;32104;50.838;4.388;2022-11-30T06:48:12;7.40;99.90
46400;DHT22;32104;50.838;4.388;2022-11-30T06:50:38;7.40;99.90
46400;DHT22;32104;50.838;4.388;2022-11-30T06:53:04;7.40;99.90
46400;DHT22;32104;50.838;4.388;2022-11-30T06:55:30;7.30;99.90
46400;DHT22;32104;50.838;4.388;2022-11-30T06:58:09;7.20;99.90
46400;DHT22;32104;50.838;4.388;2022-11-30T07:00:35;7.40;99.90
46400;DHT22;32104;50.838;4.388;2022-11-30T07:03:02;7.30;99.90
46400;DHT22;32104;50.838;4.388;2022-11-30T07:05:29;7.30;99.90
46400;DHT22;32104;50.838;4.388;2022-11-30T07:07:56;7.30;99.90
46400;DHT22;32104;50.838;4.388;2022-11-30T07:10:22;7.20;99.90
46400;DHT22;32104;50.838;4.388;2022-11-30T07:12:48;7.20;99.90
46400;DHT22;32104;50.838;4.388;2022-11-30T07:15:15;7.20;99.90
46400;DHT22;32104;50.838;4.388;2022-11-30T07:17:42;7.20;99.90
46400;DHT22;32104;50.838;4.388;2022-11-30T07:20:08;7.20;99.90
46400;DHT22;32104;50.838;4.388;2022-11-30T07:22:34;7.20;99.90
46400;DHT22;32104;50.838;4.388;2022-11-30T07:25:02;7.10;99.90
46400;DHT22;32104;50.838;4.388;2022-11-30T07:27:47;7.30;99.90
46400;DHT22;32104;50.838;4.388;2022-11-30T07:30:13;7.20;99.90
46400;DHT22;32104;50.838;4.388;2022-11-30T07:32:39;7.30;99.90
46400;DHT22;32104;50.838;4.388;2022-11-30T07:35:05;7.30;99.90
46400;DHT22;32104;50.838;4.388;2022-11-30T07:37:33;7.30;99.90
46400;DHT22;32104;50.838;4.388;2022-11-30T07:39:58;7.30;99.90
46400;DHT22;32104;50.838;4.388;2022-11-30T07:42:28;7.40;99.90
46400;DHT22;32104;50.838;4.388;2022-11-30T07:44:56;7.40;99.90
46400;DHT22;32104;50.838;4.388;2022-11-30T07:47:21;7.30;99.90
46400;DHT22;32104;50.838;4.388;2022-11-30T07:49:47;7.40;99.90
46400;DHT22;32104;50.838;4.388;2022-11-30T07:52:13;7.30;99.90
46400;DHT22;32104;50.838;4.388;2022-11-30T07:54:39;7.30;99.90
46400;DHT22;32104;50.838;4.388;2022-11-30T07:57:05;7.30;99.90
46400;DHT22;32104;50.838;4.388;2022-11-30T07:59:30;7.40;99.90
46400;DHT22;32104;50.838;4.388;2022-11-30T08:01:56;7.40;99.90
46400;DHT22;32104;50.838;4.388;2022-11-30T08:04:30;7.60;99.90
46400;DHT22;32104;50.838;4.388;2022-11-30T08:06:58;7.60;99.90
46400;DHT22;32104;50.838;4.388;2022-11-30T08:09:30;7.40;99.90
46400;DHT22;32104;50.838;4.388;2022-11-30T08:11:58;7.40;99.90
46400;DHT22;32104;50.838;4.388;2022-11-30T08:14:30;7.30;99.90
46400;DHT22;32104;50.838;4.388;2022-11-30T08:16:57;7.30;99.90
46400;DHT22;32104;50.838;4.388;2022-11-30T08:19:23;7.30;99.90
46400;DHT22;32104;50.838;4.388;2022-11-30T08:21:49;7.40;99.90
46400;DHT22;32104;50.838;4.388;2022-11-30T08:24:15;7.30;99.90
46400;DHT22;32104;50.838;4.388;2022-11-30T08:26:42;7.20;99.90
46400;DHT22;32104;50.838;4.388;2022-11-30T08:29:09;7.30;99.90
46400;DHT22;32104;50.838;4.388;2022-11-30T08:31:36;7.40;99.90
46400;DHT22;32104;50.838;4.388;2022-11-30T08:34:05;7.30;99.90
46400;DHT22;32104;50.838;4.388;2022-11-30T08:36:32;7.40;99.90
46400;DHT22;32104;50.838;4.388;2022-11-30T08:38:59;7.50;99.90
46400;DHT22;32104;50.838;4.388;2022-11-30T08:41:25;7.60;99.90
46400;DHT22;32104;50.838;4.388;2022-11-30T08:43:51;7.70;99.90
46400;DHT22;32104;50.838;4.388;2022-11-30T08:46:25;7.80;99.90
46400;DHT22;32104;50.838;4.388;2022-11-30T08:48:51;7.70;99.90
46400;DHT22;32104;50.838;4.388;2022-11-30T08:51:18;7.60;99.90
46400;DHT22;32104;50.838;4.388;2022-11-30T08:53:45;7.70;99.90
46400;DHT22;32104;50.838;4.388;2022-11-30T08:56:19;7.70;99.90
46400;DHT22;32104;50.838;4.388;2022-11-30T08:58:51;7.70;99.90
46400;DHT22;32104;50.838;4.388;2022-11-30T09:01:21;7.70;99.90
46400;DHT22;32104;50.838;4.388;2022-11-30T09:03:49;7.80;99.90
46400;DHT22;32104;50.838;4.388;2022-11-30T09:06:21;7.90;99.90
46400;DHT22;32104;50.838;4.388;2022-11-30T09:08:49;7.80;99.90
46400;DHT22;32104;50.838;4.388;2022-11-30T09:11:26;7.90;99.90
46400;DHT22;32104;50.838;4.388;2022-11-30T09:13:54;8.00;99.90
46400;DHT22;32104;50.838;4.388;2022-11-30T09:16:21;7.90;99.90
46400;DHT22;32104;50.838;4.388;2022-11-30T09:18:49;8.00;99.90
46400;DHT22;32104;50.838;4.388;2022-11-30T09:21:19;8.10;99.90
46400;DHT22;32104;50.838;4.388;2022-11-30T09:23:46;8.20;99.90
46400;DHT22;32104;50.838;4.388;2022-11-30T09:26:20;8.00;99.90
46400;DHT22;32104;50.838;4.388;2022-11-30T09:28:48;8.00;99.90
46400;DHT22;32104;50.838;4.388;2022-11-30T09:31:16;8.00;99.90
46400;DHT22;32104;50.838;4.388;2022-11-30T09:33:44;8.00;99.90
46400;DHT22;32104;50.838;4.388;2022-11-30T09:36:12;8.10;99.90
46400;DHT22;32104;50.838;4.388;2022-11-30T09:38:38;8.20;99.90
46400;DHT22;32104;50.838;4.388;2022-11-30T09:44:24;8.30;99.90
46400;DHT22;32104;50.838;4.388;2022-11-30T09:47:18;8.40;99.90
46400;DHT22;32104;50.838;4.388;2022-11-30T09:49:49;8.30;99.90
46400;DHT22;32104;50.838;4.388;2022-11-30T09:55:48;8.30;99.90
46400;DHT22;32104;50.838;4.388;2022-11-30T09:58:26;8.30;99.90
46400;DHT22;32104;50.838;4.388;2022-11-30T10:00:54;8.40;99.90
46400;DHT22;32104;50.838;4.388;2022-11-30T10:03:21;8.60;99.90
46400;DHT22;32104;50.838;4.388;2022-11-30T10:09:08;8.50;99.90
46400;DHT22;32104;50.838;4.388;2022-11-30T10:11:42;8.70;99.90
46400;DHT22;32104;50.838;4.388;2022-11-30T10:19:57;8.80;99.90
46400;DHT22;32104;50.838;4.388;2022-11-30T10:28:32;8.80;99.90
46400;DHT22;32104;50.838;4.388;2022-11-30T10:31:02;8.80;99.90
46400;DHT22;32104;50.838;4.388;2022-11-30T10:33:36;8.70;99.90
46400;DHT22;32104;50.838;4.388;2022-11-30T10:36:31;8.80;99.90
46400;DHT22;32104;50.838;4.388;2022-11-30T10:41:50;8.90;99.90
46400;DHT22;32104;50.838;4.388;2022-11-30T10:44:29;9.00;99.90
46400;DHT22;32104;50.838;4.388;2022-11-30T10:49:50;9.20;99.90
46400;DHT22;32104;50.838;4.388;2022-11-30T10:52:29;9.30;99.90
46400;DHT22;32104;50.838;4.388;2022-11-30T10:54:55;9.30;99.90
46400;DHT22;32104;50.838;4.388;2022-11-30T10:57:25;9.10;99.90
46400;DHT22;32104;50.838;4.388;2022-11-30T11:00:06;9.00;99.90
46400;DHT22;32104;50.838;4.388;2022-11-30T11:02:51;9.20;99.90
46400;DHT22;32104;50.838;4.388;2022-11-30T11:05:27;9.20;99.90
46400;DHT22;32104;50.838;4.388;2022-11-30T11:08:17;9.20;99.90
46400;DHT22;32104;50.838;4.388;2022-11-30T11:10:46;9.30;99.90
46400;DHT22;32104;50.838;4.388;2022-11-30T11:13:42;9.30;99.90
46400;DHT22;32104;50.838;4.388;2022-11-30T11:16:11;9.20;99.90
46400;DHT22;32104;50.838;4.388;2022-11-30T11:18:54;9.10;99.90
46400;DHT22;32104;50.838;4.388;2022-11-30T11:21:22;9.10;99.90
46400;DHT22;32104;50.838;4.388;2022-11-30T11:23:55;9.10;99.90
46400;DHT22;32104;50.838;4.388;2022-11-30T11:26:27;9.20;99.90
46400;DHT22;32104;50.838;4.388;2022-11-30T11:28:55;9.30;99.90
46400;DHT22;32104;50.838;4.388;2022-11-30T11:31:44;9.40;99.90
46400;DHT22;32104;50.838;4.388;2022-11-30T11:34:53;9.50;99.90
46400;DHT22;32104;50.838;4.388;2022-11-30T11:37:49;9.50;99.90
46400;DHT22;32104;50.838;4.388;2022-11-30T11:40:16;9.40;99.90
46400;DHT22;32104;50.838;4.388;2022-11-30T11:42:47;9.30;99.90
46400;DHT22;32104;50.838;4.388;2022-11-30T11:45:18;9.20;99.90
46400;DHT22;32104;50.838;4.388;2022-11-30T11:47:46;9.10;99.90
46400;DHT22;32104;50.838;4.388;2022-11-30T11:50:34;9.00;99.90
46400;DHT22;32104;50.838;4.388;2022-11-30T11:54:12;9.20;99.90
46400;DHT22;32104;50.838;4.388;2022-11-30T11:56:36;9.00;99.90
46400;DHT22;32104;50.838;4.388;2022-11-30T12:05:06;9.10;99.90
46400;DHT22;32104;50.838;4.388;2022-11-30T12:07:41;9.20;99.90
46400;DHT22;32104;50.838;4.388;2022-11-30T12:10:48;9.30;99.90
46400;DHT22;32104;50.838;4.388;2022-11-30T12:13:30;9.30;99.90
46400;DHT22;32104;50.838;4.388;2022-11-30T12:25:24;9.50;99.90
46400;DHT22;32104;50.838;4.388;2022-11-30T12:31:14;9.80;99.90
46400;DHT22;32104;50.838;4.388;2022-11-30T12:36:59;9.80;99.90
46400;DHT22;32104;50.838;4.388;2022-11-30T12:39:56;9.90;99.90
46400;DHT22;32104;50.838;4.388;2022-11-30T12:42:51;9.70;99.90
46400;DHT22;32104;50.838;4.388;2022-11-30T12:45:44;9.70;99.90
46400;DHT22;32104;50.838;4.388;2022-11-30T12:48:35;9.80;99.90
46400;DHT22;32104;50.838;4.388;2022-11-30T12:51:36;9.90;99.90
46400;DHT22;32104;50.838;4.388;2022-11-30T12:54:22;9.80;99.90
46400;DHT22;32104;50.838;4.388;2022-11-30T12:59:55;9.60;99.90
46400;DHT22;32104;50.838;4.388;2022-11-30T13:08:58;9.80;99.90
46400;DHT22;32104;50.838;4.388;2022-11-30T13:11:40;10.00;99.90
46400;DHT22;32104;50.838;4.388;2022-11-30T13:14:35;10.10;99.90
46400;DHT22;32104;50.838;4.388;2022-11-30T13:17:06;10.10;99.90
46400;DHT22;32104;50.838;4.388;2022-11-30T13:19:54;9.90;99.90
46400;DHT22;32104;50.838;4.388;2022-11-30T13:22:38;9.90;99.90
46400;DHT22;32104;50.838;4.388;2022-11-30T13:31:15;10.00;99.90
46400;DHT22;32104;50.838;4.388;2022-11-30T13:33:58;9.90;99.90
46400;DHT22;32104;50.838;4.388;2022-11-30T13:36:43;9.80;99.90
46400;DHT22;32104;50.838;4.388;2022-11-30T13:41:40;9.90;99.90
46400;DHT22;32104;50.838;4.388;2022-11-30T13:44:25;9.90;99.90
46400;DHT22;32104;50.838;4.388;2022-11-30T13:46:54;10.10;99.90
46400;DHT22;32104;50.838;4.388;2022-11-30T13:49:33;10.20;99.90
46400;DHT22;32104;50.838;4.388;2022-11-30T13:52:04;10.20;99.90
46400;DHT22;32104;50.838;4.388;2022-11-30T13:54:49;10.20;99.90
46400;DHT22;32104;50.838;4.388;2022-11-30T14:06:00;9.90;99.90
46400;DHT22;32104;50.838;4.388;2022-11-30T14:08:36;9.90;99.90
46400;DHT22;32104;50.838;4.388;2022-11-30T14:14:40;9.50;99.90
46400;DHT22;32104;50.838;4.388;2022-11-30T14:17:20;9.50;99.90
46400;DHT22;32104;50.838;4.388;2022-11-30T14:19:50;9.50;99.90
46400;DHT22;32104;50.838;4.388;2022-11-30T14:22:17;9.40;99.90
46400;DHT22;32104;50.838;4.388;2022-11-30T14:24:46;9.40;99.90
46400;DHT22;32104;50.838;4.388;2022-11-30T14:27:17;9.40;99.90
46400;DHT22;32104;50.838;4.388;2022-11-30T14:29:48;9.50;99.90
46400;DHT22;32104;50.838;4.388;2022-11-30T14:32:41;9.40;99.90
46400;DHT22;32104;50.838;4.388;2022-11-30T14:35:35;9.40;99.90
46400;DHT22;32104;50.838;4.388;2022-11-30T14:38:18;9.40;99.90
46400;DHT22;32104;50.838;4.388;2022-11-30T14:40:51;9.60;99.90
46400;DHT22;32104;50.838;4.388;2022-11-30T14:43:17;9.50;99.90
46400;DHT22;32104;50.838;4.388;2022-11-30T14:45:59;9.50;99.90
46400;DHT22;32104;50.838;4.388;2022-11-30T14:48:26;9.40;99.90
46400;DHT22;32104;50.838;4.388;2022-11-30T14:51:15;9.30;99.90
46400;DHT22;32104;50.838;4.388;2022-11-30T14:53:54;9.20;99.90
46400;DHT22;32104;50.838;4.388;2022-11-30T14:56:55;9.10;99.90
46400;DHT22;32104;50.838;4.388;2022-11-30T14:59:36;9.00;99.90
46400;DHT22;32104;50.838;4.388;2022-11-30T15:02:17;8.90;99.90
46400;DHT22;32104;50.838;4.388;2022-11-30T15:04:43;8.80;99.90
46400;DHT22;32104;50.838;4.388;2022-11-30T15:07:15;8.80;99.90
46400;DHT22;32104;50.838;4.388;2022-11-30T15:10:00;8.70;99.90
46400;DHT22;32104;50.838;4.388;2022-11-30T15:12:30;8.70;99.90
46400;DHT22;32104;50.838;4.388;2022-11-30T15:15:01;8.60;99.90
46400;DHT22;32104;50.838;4.388;2022-11-30T15:17:29;8.60;99.90
46400;DHT22;32104;50.838;4.388;2022-11-30T15:19:56;8.50;99.90
46400;DHT22;32104;50.838;4.388;2022-11-30T15:22:36;8.70;99.90
46400;DHT22;32104;50.838;4.388;2022-11-30T15:25:02;8.70;99.90
46400;DHT22;32104;50.838;4.388;2022-11-30T15:27:28;8.70;99.90
46400;DHT22;32104;50.838;4.388;2022-11-30T15:29:58;8.70;99.90
46400;DHT22;32104;50.838;4.388;2022-11-30T15:32:28;8.70;99.90
46400;DHT22;32104;50.838;4.388;2022-11-30T15:34:58;8.70;99.90
46400;DHT22;32104;50.838;4.388;2022-11-30T15:37:33;8.70;99.90
46400;DHT22;32104;50.838;4.388;2022-11-30T15:40:07;8.70;99.90
46400;DHT22;32104;50.838;4.388;2022-11-30T15:42:45;8.70;99.90
46400;DHT22;32104;50.838;4.388;2022-11-30T15:45:34;8.70;99.90
46400;DHT22;32104;50.838;4.388;2022-11-30T15:51:21;8.30;99.90
46400;DHT22;32104;50.838;4.388;2022-11-30T15:53:50;8.40;99.90
46400;DHT22;32104;50.838;4.388;2022-11-30T15:56:34;8.50;99.90
46400;DHT22;32104;50.838;4.388;2022-11-30T15:59:06;8.50;99.90
46400;DHT22;32104;50.838;4.388;2022-11-30T16:02:06;8.50;99.90
46400;DHT22;32104;50.838;4.388;2022-11-30T16:07:34;8.50;99.90
46400;DHT22;32104;50.838;4.388;2022-11-30T16:10:17;8.40;99.90
46400;DHT22;32104;50.838;4.388;2022-11-30T16:12:44;8.40;99.90
46400;DHT22;32104;50.838;4.388;2022-11-30T16:15:34;8.50;99.90
46400;DHT22;32104;50.838;4.388;2022-11-30T16:21:14;8.40;99.90
46400;DHT22;32104;50.838;4.388;2022-11-30T16:23:41;8.50;99.90
46400;DHT22;32104;50.838;4.388;2022-11-30T16:26:12;8.40;99.90
46400;DHT22;32104;50.838;4.388;2022-11-30T16:28:38;8.40;99.90
46400;DHT22;32104;50.838;4.388;2022-11-30T16:31:04;8.50;99.90
46400;DHT22;32104;50.838;4.388;2022-11-30T16:33:29;8.40;99.90
46400;DHT22;32104;50.838;4.388;2022-11-30T16:36:02;8.40;99.90
46400;DHT22;32104;50.838;4.388;2022-11-30T16:38:29;8.40;99.90
46400;DHT22;32104;50.838;4.388;2022-11-30T16:40:55;8.30;99.90
46400;DHT22;32104;50.838;4.388;2022-11-30T16:43:38;8.40;99.90
46400;DHT22;32104;50.838;4.388;2022-11-30T16:46:08;8.40;99.90
46400;DHT22;32104;50.838;4.388;2022-11-30T16:48:40;8.40;99.90
46400;DHT22;32104;50.838;4.388;2022-11-30T16:51:26;8.40;99.90
46400;DHT22;32104;50.838;4.388;2022-11-30T16:53:53;8.30;99.90
46400;DHT22;32104;50.838;4.388;2022-11-30T16:56:20;8.40;99.90
46400;DHT22;32104;50.838;4.388;2022-11-30T16:58:47;8.40;99.90
46400;DHT22;32104;50.838;4.388;2022-11-30T17:04:19;8.40;99.90
46400;DHT22;32104;50.838;4.388;2022-11-30T17:06:48;8.30;99.90
46400;DHT22;32104;50.838;4.388;2022-11-30T17:09:21;8.20;99.90
46400;DHT22;32104;50.838;4.388;2022-11-30T17:11:49;8.20;99.90
46400;DHT22;32104;50.838;4.388;2022-11-30T17:14:23;8.20;99.90
46400;DHT22;32104;50.838;4.388;2022-11-30T17:16:49;8.20;99.90
46400;DHT22;32104;50.838;4.388;2022-11-30T17:19:15;8.10;99.90
46400;DHT22;32104;50.838;4.388;2022-11-30T17:21:42;8.10;99.90
46400;DHT22;32104;50.838;4.388;2022-11-30T17:24:09;8.20;99.90
46400;DHT22;32104;50.838;4.388;2022-11-30T17:26:36;8.10;99.90
46400;DHT22;32104;50.838;4.388;2022-11-30T17:31:48;8.10;99.90
46400;DHT22;32104;50.838;4.388;2022-11-30T17:34:20;8.10;99.90
46400;DHT22;32104;50.838;4.388;2022-11-30T17:36:51;8.20;99.90
46400;DHT22;32104;50.838;4.388;2022-11-30T17:39:21;8.10;99.90
46400;DHT22;32104;50.838;4.388;2022-11-30T17:41:48;8.10;99.90
46400;DHT22;32104;50.838;4.388;2022-11-30T17:44:16;8.20;99.90
46400;DHT22;32104;50.838;4.388;2022-11-30T17:46:43;8.30;99.90
46400;DHT22;32104;50.838;4.388;2022-11-30T17:49:10;8.30;99.90
46400;DHT22;32104;50.838;4.388;2022-11-30T17:51:37;8.30;99.90
46400;DHT22;32104;50.838;4.388;2022-11-30T17:54:04;8.20;99.90
46400;DHT22;32104;50.838;4.388;2022-11-30T17:56:43;8.20;99.90
46400;DHT22;32104;50.838;4.388;2022-11-30T17:59:09;8.30;99.90
46400;DHT22;32104;50.838;4.388;2022-11-30T18:01:35;8.20;99.90
46400;DHT22;32104;50.838;4.388;2022-11-30T18:04:01;8.20;99.90
46400;DHT22;32104;50.838;4.388;2022-11-30T18:06:28;8.20;99.90
46400;DHT22;32104;50.838;4.388;2022-11-30T18:09:00;8.20;99.90
46400;DHT22;32104;50.838;4.388;2022-11-30T18:11:29;8.00;99.90
46400;DHT22;32104;50.838;4.388;2022-11-30T18:13:59;8.00;99.90
46400;DHT22;32104;50.838;4.388;2022-11-30T18:16:33;8.00;99.90
46400;DHT22;32104;50.838;4.388;2022-11-30T18:19:04;8.00;99.90
46400;DHT22;32104;50.838;4.388;2022-11-30T18:21:43;7.90;99.90
46400;DHT22;32104;50.838;4.388;2022-11-30T18:24:11;7.90;99.90
46400;DHT22;32104;50.838;4.388;2022-11-30T18:26:38;7.80;99.90
46400;DHT22;32104;50.838;4.388;2022-11-30T18:29:26;7.80;99.90
46400;DHT22;32104;50.838;4.388;2022-11-30T18:31:53;7.70;99.90
46400;DHT22;32104;50.838;4.388;2022-11-30T18:34:20;7.60;99.90
46400;DHT22;32104;50.838;4.388;2022-11-30T18:36:55;7.70;99.90
46400;DHT22;32104;50.838;4.388;2022-11-30T18:39:21;7.60;99.90
46400;DHT22;32104;50.838;4.388;2022-11-30T18:41:47;7.70;99.90
46400;DHT22;32104;50.838;4.388;2022-11-30T18:44:16;7.80;99.90
46400;DHT22;32104;50.838;4.388;2022-11-30T18:46:43;7.80;99.90
46400;DHT22;32104;50.838;4.388;2022-11-30T18:49:10;7.80;99.90